sensor_id;sensor_type;location;lat;lon;timestamp;pressure;altitude;pressure_sealevel;temperature
61703;BMP280;47622;47.726;3.298;2023-05-13T00:00:48;99205.22;;;11.32
61703;BMP280;47622;47.726;3.298;2023-05-13T00:03:13;99207.06;;;11.31
61703;BMP280;47622;47.726;3.298;2023-05-13T00:05:39;99212.13;;;11.27
61703;BMP280;47622;47.726;3.298;2023-05-13T00:08:05;99211.63;;;11.17
61703;BMP280;47622;47.726;3.298;2023-05-13T00:10:34;99207.31;;;11.21
61703;BMP280;47622;47.726;3.298;2023-05-13T00:12:59;99202.56;;;11.23
61703;BMP280;47622;47.726;3.298;2023-05-13T00:15:27;99211.00;;;11.20
61703;BMP280;47622;47.726;3.298;2023-05-13T00:17:53;99207.06;;;11.31
61703;BMP280;47622;47.726;3.298;2023-05-13T00:20:19;99213.41;;;11.30
61703;BMP280;47622;47.726;3.298;2023-05-13T00:22:44;99209.06;;;11.25
61703;BMP280;47622;47.726;3.298;2023-05-13T00:25:10;99217.00;;;11.34
61703;BMP280;47622;47.726;3.298;2023-05-13T00:27:35;99208.78;;;11.36
61703;BMP280;47622;47.726;3.298;2023-05-13T00:30:01;99208.34;;;11.42
61703;BMP280;47622;47.726;3.298;2023-05-13T00:32:27;99210.78;;;11.30
61703;BMP280;47622;47.726;3.298;2023-05-13T00:34:53;99200.88;;;11.27
61703;BMP280;47622;47.726;3.298;2023-05-13T00:37:18;99206.25;;;11.22
61703;BMP280;47622;47.726;3.298;2023-05-13T00:39:44;99200.72;;;11.23
61703;BMP280;47622;47.726;3.298;2023-05-13T00:42:09;99201.50;;;11.24
61703;BMP280;47622;47.726;3.298;2023-05-13T00:44:37;99197.00;;;11.24
61703;BMP280;47622;47.726;3.298;2023-05-13T00:47:06;99204.34;;;11.14
61703;BMP280;47622;47.726;3.298;2023-05-13T00:49:32;99199.09;;;11.14
61703;BMP280;47622;47.726;3.298;2023-05-13T00:51:59;99204.50;;;11.09
61703;BMP280;47622;47.726;3.298;2023-05-13T00:54:24;99203.50;;;11.05
61703;BMP280;47622;47.726;3.298;2023-05-13T00:56:50;99198.63;;;11.12
61703;BMP280;47622;47.726;3.298;2023-05-13T00:59:19;99199.25;;;11.09
61703;BMP280;47622;47.726;3.298;2023-05-13T01:02:15;99194.00;;;11.09
61703;BMP280;47622;47.726;3.298;2023-05-13T01:04:43;99202.69;;;11.18
61703;BMP280;47622;47.726;3.298;2023-05-13T01:07:19;99200.66;;;11.15
61703;BMP280;47622;47.726;3.298;2023-05-13T01:12:40;99203.91;;;11.20
61703;BMP280;47622;47.726;3.298;2023-05-13T01:15:09;99199.00;;;11.19
61703;BMP280;47622;47.726;3.298;2023-05-13T01:17:59;99203.97;;;11.29
61703;BMP280;47622;47.726;3.298;2023-05-13T01:20:30;99196.03;;;11.20
61703;BMP280;47622;47.726;3.298;2023-05-13T01:22:56;99203.97;;;11.29
61703;BMP280;47622;47.726;3.298;2023-05-13T01:25:22;99204.16;;;11.33
61703;BMP280;47622;47.726;3.298;2023-05-13T01:27:49;99204.97;;;11.42
61703;BMP280;47622;47.726;3.298;2023-05-13T01:30:15;99207.00;;;11.45
61703;BMP280;47622;47.726;3.298;2023-05-13T01:32:41;99201.88;;;11.40
61703;BMP280;47622;47.726;3.298;2023-05-13T01:35:07;99204.06;;;11.46
61703;BMP280;47622;47.726;3.298;2023-05-13T01:37:35;99205.44;;;11.44
61703;BMP280;47622;47.726;3.298;2023-05-13T01:40:01;99208.72;;;11.49
61703;BMP280;47622;47.726;3.298;2023-05-13T01:42:28;99204.31;;;11.36
61703;BMP280;47622;47.726;3.298;2023-05-13T01:44:54;99205.00;;;11.50
61703;BMP280;47622;47.726;3.298;2023-05-13T01:47:19;99208.09;;;11.52
61703;BMP280;47622;47.726;3.298;2023-05-13T01:49:45;99206.50;;;11.34
61703;BMP280;47622;47.726;3.298;2023-05-13T01:52:11;99200.81;;;11.41
61703;BMP280;47622;47.726;3.298;2023-05-13T01:54:36;99206.22;;;11.44
61703;BMP280;47622;47.726;3.298;2023-05-13T01:57:02;99206.22;;;11.44
61703;BMP280;47622;47.726;3.298;2023-05-13T01:59:28;99210.72;;;11.52
61703;BMP280;47622;47.726;3.298;2023-05-13T02:01:54;99201.28;;;11.51
61703;BMP280;47622;47.726;3.298;2023-05-13T02:04:20;99203.50;;;11.49
61703;BMP280;47622;47.726;3.298;2023-05-13T02:06:45;99209.19;;;11.51
61703;BMP280;47622;47.726;3.298;2023-05-13T02:09:11;99219.25;;;11.49
61703;BMP280;47622;47.726;3.298;2023-05-13T02:11:37;99212.41;;;11.48
61703;BMP280;47622;47.726;3.298;2023-05-13T02:14:03;99202.97;;;11.39
61703;BMP280;47622;47.726;3.298;2023-05-13T02:16:30;99195.03;;;11.30
61703;BMP280;47622;47.726;3.298;2023-05-13T02:18:55;99201.25;;;11.34
61703;BMP280;47622;47.726;3.298;2023-05-13T02:21:21;99203.88;;;11.43
61703;BMP280;47622;47.726;3.298;2023-05-13T02:23:48;99198.94;;;11.41
61703;BMP280;47622;47.726;3.298;2023-05-13T02:26:13;99196.91;;;11.38
61703;BMP280;47622;47.726;3.298;2023-05-13T02:28:39;99199.41;;;11.35
61703;BMP280;47622;47.726;3.298;2023-05-13T02:31:04;99208.00;;;11.35
61703;BMP280;47622;47.726;3.298;2023-05-13T02:33:30;99196.13;;;11.38
61703;BMP280;47622;47.726;3.298;2023-05-13T02:35:56;99196.31;;;11.41
61703;BMP280;47622;47.726;3.298;2023-05-13T02:38:22;99199.38;;;11.43
61703;BMP280;47622;47.726;3.298;2023-05-13T02:40:47;99197.25;;;11.45
61703;BMP280;47622;47.726;3.298;2023-05-13T02:43:13;99206.56;;;11.51
61703;BMP280;47622;47.726;3.298;2023-05-13T02:45:39;99208.09;;;11.52
61703;BMP280;47622;47.726;3.298;2023-05-13T02:48:05;99204.25;;;11.58
61703;BMP280;47622;47.726;3.298;2023-05-13T02:50:31;99202.69;;;11.57
61703;BMP280;47622;47.726;3.298;2023-05-13T02:52:57;99203.03;;;11.56
61703;BMP280;47622;47.726;3.298;2023-05-13T02:55:22;99200.28;;;11.61
61703;BMP280;47622;47.726;3.298;2023-05-13T02:57:48;99199.75;;;11.50
61703;BMP280;47622;47.726;3.298;2023-05-13T03:00:14;99185.81;;;11.41
61703;BMP280;47622;47.726;3.298;2023-05-13T03:02:40;99188.50;;;11.50
61703;BMP280;47622;47.726;3.298;2023-05-13T03:05:06;99183.25;;;11.50
61703;BMP280;47622;47.726;3.298;2023-05-13T03:07:32;99187.09;;;11.52
61703;BMP280;47622;47.726;3.298;2023-05-13T03:09:57;99189.56;;;11.57
61703;BMP280;47622;47.726;3.298;2023-05-13T03:12:23;99194.81;;;11.57
61703;BMP280;47622;47.726;3.298;2023-05-13T03:14:48;99190.34;;;11.58
61703;BMP280;47622;47.726;3.298;2023-05-13T03:17:14;99195.09;;;11.47
61703;BMP280;47622;47.726;3.298;2023-05-13T03:19:41;99188.31;;;11.46
61703;BMP280;47622;47.726;3.298;2023-05-13T03:22:07;99190.03;;;11.51
61703;BMP280;47622;47.726;3.298;2023-05-13T03:24:32;99194.81;;;11.57
61703;BMP280;47622;47.726;3.298;2023-05-13T03:26:58;99196.88;;;11.61
61703;BMP280;47622;47.726;3.298;2023-05-13T03:29:23;99187.44;;;11.60
61703;BMP280;47622;47.726;3.298;2023-05-13T03:31:49;99195.94;;;11.56
61703;BMP280;47622;47.726;3.298;2023-05-13T03:34:15;99204.69;;;11.52
61703;BMP280;47622;47.726;3.298;2023-05-13T03:36:41;99203.81;;;11.56
61703;BMP280;47622;47.726;3.298;2023-05-13T03:39:06;99197.72;;;11.47
61703;BMP280;47622;47.726;3.298;2023-05-13T03:41:32;99200.06;;;11.57
61703;BMP280;47622;47.726;3.298;2023-05-13T03:43:58;99201.03;;;11.62
61703;BMP280;47622;47.726;3.298;2023-05-13T03:46:23;99200.06;;;11.57
61703;BMP280;47622;47.726;3.298;2023-05-13T03:48:52;99198.41;;;11.62
61703;BMP280;47622;47.726;3.298;2023-05-13T03:51:19;99198.28;;;11.67
61703;BMP280;47622;47.726;3.298;2023-05-13T03:53:46;99196.56;;;11.62
61703;BMP280;47622;47.726;3.298;2023-05-13T03:56:12;99206.00;;;11.63
61703;BMP280;47622;47.726;3.298;2023-05-13T03:58:38;99209.56;;;11.67
61703;BMP280;47622;47.726;3.298;2023-05-13T04:01:03;99201.97;;;11.66
61703;BMP280;47622;47.726;3.298;2023-05-13T04:03:29;99202.75;;;11.66
61703;BMP280;47622;47.726;3.298;2023-05-13T04:05:55;99200.78;;;11.72
61703;BMP280;47622;47.726;3.298;2023-05-13T04:08:21;99205.53;;;11.70
61703;BMP280;47622;47.726;3.298;2023-05-13T04:10:48;99201.97;;;11.66
61703;BMP280;47622;47.726;3.298;2023-05-13T04:13:13;99202.59;;;11.63
61703;BMP280;47622;47.726;3.298;2023-05-13T04:15:39;99206.63;;;11.69
61703;BMP280;47622;47.726;3.298;2023-05-13T04:18:05;99204.50;;;11.71
61703;BMP280;47622;47.726;3.298;2023-05-13T04:20:32;99202.31;;;11.73
61703;BMP280;47622;47.726;3.298;2023-05-13T04:22:58;99209.09;;;11.74
61703;BMP280;47622;47.726;3.298;2023-05-13T04:25:23;99201.72;;;11.76
61703;BMP280;47622;47.726;3.298;2023-05-13T04:27:50;99208.66;;;11.72
61703;BMP280;47622;47.726;3.298;2023-05-13T04:30:16;99207.25;;;11.74
61703;BMP280;47622;47.726;3.298;2023-05-13T04:32:41;99214.25;;;11.79
61703;BMP280;47622;47.726;3.298;2023-05-13T04:35:07;99222.59;;;11.90
61703;BMP280;47622;47.726;3.298;2023-05-13T04:37:34;99213.84;;;11.94
61703;BMP280;47622;47.726;3.298;2023-05-13T04:40:00;99209.16;;;11.91
61703;BMP280;47622;47.726;3.298;2023-05-13T04:42:25;99217.81;;;11.83
61703;BMP280;47622;47.726;3.298;2023-05-13T04:44:51;99219.50;;;11.87
61703;BMP280;47622;47.726;3.298;2023-05-13T04:47:17;99226.16;;;11.85
61703;BMP280;47622;47.726;3.298;2023-05-13T04:49:43;99230.03;;;11.87
61703;BMP280;47622;47.726;3.298;2023-05-13T04:52:10;99230.19;;;11.91
61703;BMP280;47622;47.726;3.298;2023-05-13T04:54:37;99232.22;;;11.94
61703;BMP280;47622;47.726;3.298;2023-05-13T04:57:04;99228.31;;;11.83
61703;BMP280;47622;47.726;3.298;2023-05-13T04:59:30;99239.34;;;11.94
61703;BMP280;47622;47.726;3.298;2023-05-13T05:01:55;99239.50;;;11.97
61703;BMP280;47622;47.726;3.298;2023-05-13T05:04:21;99243.34;;;12.00
61703;BMP280;47622;47.726;3.298;2023-05-13T05:06:46;99244.59;;;12.02
61703;BMP280;47622;47.726;3.298;2023-05-13T05:09:13;99248.44;;;11.96
61703;BMP280;47622;47.726;3.298;2023-05-13T05:11:38;99256.19;;;12.01
61703;BMP280;47622;47.726;3.298;2023-05-13T05:14:04;99252.78;;;11.92
61703;BMP280;47622;47.726;3.298;2023-05-13T05:16:29;99256.47;;;11.91
61703;BMP280;47622;47.726;3.298;2023-05-13T05:18:55;99258.34;;;11.99
61703;BMP280;47622;47.726;3.298;2023-05-13T05:21:20;99249.25;;;12.05
61703;BMP280;47622;47.726;3.298;2023-05-13T05:23:46;99250.50;;;12.08
61703;BMP280;47622;47.726;3.298;2023-05-13T05:26:11;99245.53;;;12.06
61703;BMP280;47622;47.726;3.298;2023-05-13T05:28:37;99250.00;;;11.97
61703;BMP280;47622;47.726;3.298;2023-05-13T05:31:04;99252.50;;;12.02
61703;BMP280;47622;47.726;3.298;2023-05-13T05:33:30;99249.75;;;12.07
61703;BMP280;47622;47.726;3.298;2023-05-13T05:35:56;99255.31;;;12.14
61703;BMP280;47622;47.726;3.298;2023-05-13T05:38:22;99267.84;;;12.26
61703;BMP280;47622;47.726;3.298;2023-05-13T05:40:49;99268.78;;;12.30
61703;BMP280;47622;47.726;3.298;2023-05-13T05:43:15;99261.66;;;12.31
61703;BMP280;47622;47.726;3.298;2023-05-13T05:45:40;99271.28;;;12.35
61703;BMP280;47622;47.726;3.298;2023-05-13T05:48:07;99260.16;;;12.30
61703;BMP280;47622;47.726;3.298;2023-05-13T05:50:33;99264.28;;;12.31
61703;BMP280;47622;47.726;3.298;2023-05-13T05:52:59;99258.72;;;12.32
61703;BMP280;47622;47.726;3.298;2023-05-13T05:55:26;99272.69;;;12.41
61703;BMP280;47622;47.726;3.298;2023-05-13T05:57:56;99272.22;;;12.48
61703;BMP280;47622;47.726;3.298;2023-05-13T06:00:23;99270.22;;;12.62
61703;BMP280;47622;47.726;3.298;2023-05-13T06:02:49;99276.09;;;12.59
61703;BMP280;47622;47.726;3.298;2023-05-13T06:05:14;99272.69;;;12.67
61703;BMP280;47622;47.726;3.298;2023-05-13T06:07:40;99269.00;;;12.68
61703;BMP280;47622;47.726;3.298;2023-05-13T06:10:06;99286.00;;;12.79
61703;BMP280;47622;47.726;3.298;2023-05-13T06:12:32;99285.22;;;12.79
61703;BMP280;47622;47.726;3.298;2023-05-13T06:14:58;99291.41;;;12.74
61703;BMP280;47622;47.726;3.298;2023-05-13T06:17:25;99287.41;;;12.94
61703;BMP280;47622;47.726;3.298;2023-05-13T06:19:51;99294.19;;;13.13
61703;BMP280;47622;47.726;3.298;2023-05-13T06:22:16;99293.44;;;13.12
61703;BMP280;47622;47.726;3.298;2023-05-13T06:24:42;99287.84;;;13.22
61703;BMP280;47622;47.726;3.298;2023-05-13T06:27:12;99293.03;;;13.39
61703;BMP280;47622;47.726;3.298;2023-05-13T06:29:38;99286.84;;;13.53
61703;BMP280;47622;47.726;3.298;2023-05-13T06:32:04;99285.13;;;13.48
61703;BMP280;47622;47.726;3.298;2023-05-13T06:34:29;99288.19;;;13.59
61703;BMP280;47622;47.726;3.298;2023-05-13T06:36:55;99294.72;;;13.61
61703;BMP280;47622;47.726;3.298;2023-05-13T06:39:21;99295.16;;;13.72
61703;BMP280;47622;47.726;3.298;2023-05-13T06:41:46;99283.03;;;13.71
61703;BMP280;47622;47.726;3.298;2023-05-13T06:44:12;99293.69;;;13.83
61703;BMP280;47622;47.726;3.298;2023-05-13T06:46:37;99290.25;;;14.21
61703;BMP280;47622;47.726;3.298;2023-05-13T06:49:03;99293.06;;;14.16
61703;BMP280;47622;47.726;3.298;2023-05-13T06:51:29;99293.41;;;14.35
61703;BMP280;47622;47.726;3.298;2023-05-13T06:53:56;99304.06;;;14.47
61703;BMP280;47622;47.726;3.298;2023-05-13T06:56:22;99298.78;;;14.18
61703;BMP280;47622;47.726;3.298;2023-05-13T06:58:50;99302.47;;;14.46
61703;BMP280;47622;47.726;3.298;2023-05-13T07:01:16;99307.19;;;14.61
61703;BMP280;47622;47.726;3.298;2023-05-13T07:03:43;99303.91;;;14.64
61703;BMP280;47622;47.726;3.298;2023-05-13T07:06:09;99306.31;;;14.57
61703;BMP280;47622;47.726;3.298;2023-05-13T07:08:35;99305.19;;;14.58
61703;BMP280;47622;47.726;3.298;2023-05-13T07:11:00;99305.72;;;14.52
61703;BMP280;47622;47.726;3.298;2023-05-13T07:13:26;99304.78;;;14.27
61703;BMP280;47622;47.726;3.298;2023-05-13T07:15:52;99306.06;;;14.21
61703;BMP280;47622;47.726;3.298;2023-05-13T07:18:17;99304.69;;;14.44
61703;BMP280;47622;47.726;3.298;2023-05-13T07:20:43;99308.16;;;14.78
61703;BMP280;47622;47.726;3.298;2023-05-13T07:23:09;99316.38;;;14.97
61703;BMP280;47622;47.726;3.298;2023-05-13T07:25:34;99325.41;;;15.41
61703;BMP280;47622;47.726;3.298;2023-05-13T07:28:00;99313.44;;;15.68
61703;BMP280;47622;47.726;3.298;2023-05-13T07:30:25;99320.03;;;15.62
61703;BMP280;47622;47.726;3.298;2023-05-13T07:32:51;99320.91;;;15.42
61703;BMP280;47622;47.726;3.298;2023-05-13T07:35:18;99321.75;;;15.21
61703;BMP280;47622;47.726;3.298;2023-05-13T07:37:43;99318.78;;;15.23
61703;BMP280;47622;47.726;3.298;2023-05-13T07:40:09;99313.75;;;15.09
61703;BMP280;47622;47.726;3.298;2023-05-13T07:42:35;99315.44;;;15.14
61703;BMP280;47622;47.726;3.298;2023-05-13T07:45:01;99321.75;;;15.21
61703;BMP280;47622;47.726;3.298;2023-05-13T07:47:27;99319.81;;;15.67
61703;BMP280;47622;47.726;3.298;2023-05-13T07:49:53;99315.78;;;16.46
61703;BMP280;47622;47.726;3.298;2023-05-13T07:52:19;99318.28;;;16.83
61703;BMP280;47622;47.726;3.298;2023-05-13T07:54:46;99320.81;;;16.91
61703;BMP280;47622;47.726;3.298;2023-05-13T07:57:12;99322.56;;;16.72
61703;BMP280;47622;47.726;3.298;2023-05-13T07:59:37;99335.38;;;16.57
61703;BMP280;47622;47.726;3.298;2023-05-13T08:02:03;99326.78;;;16.60
61703;BMP280;47622;47.726;3.298;2023-05-13T08:04:29;99323.03;;;16.62
61703;BMP280;47622;47.726;3.298;2023-05-13T08:06:54;99319.50;;;16.17
61703;BMP280;47622;47.726;3.298;2023-05-13T08:09:20;99317.16;;;16.16
61703;BMP280;47622;47.726;3.298;2023-05-13T08:11:45;99321.81;;;16.19
61703;BMP280;47622;47.726;3.298;2023-05-13T08:14:11;99319.00;;;16.80
61703;BMP280;47622;47.726;3.298;2023-05-13T08:16:36;99317.66;;;17.80
61703;BMP280;47622;47.726;3.298;2023-05-13T08:19:02;99315.72;;;19.39
61703;BMP280;47622;47.726;3.298;2023-05-13T08:21:28;99310.72;;;21.42
61703;BMP280;47622;47.726;3.298;2023-05-13T08:23:54;99321.41;;;21.42
61703;BMP280;47622;47.726;3.298;2023-05-13T08:26:19;99322.53;;;20.19
61703;BMP280;47622;47.726;3.298;2023-05-13T08:28:45;99316.13;;;20.60
61703;BMP280;47622;47.726;3.298;2023-05-13T08:31:11;99332.53;;;22.55
61703;BMP280;47622;47.726;3.298;2023-05-13T08:33:38;99324.13;;;22.46
61703;BMP280;47622;47.726;3.298;2023-05-13T08:36:06;99326.22;;;21.80
61703;BMP280;47622;47.726;3.298;2023-05-13T08:38:31;99322.97;;;20.98
61703;BMP280;47622;47.726;3.298;2023-05-13T08:40:58;99323.09;;;21.71
61703;BMP280;47622;47.726;3.298;2023-05-13T08:43:26;99329.44;;;22.32
61703;BMP280;47622;47.726;3.298;2023-05-13T08:45:55;99329.88;;;23.23
61703;BMP280;47622;47.726;3.298;2023-05-13T08:48:21;99335.56;;;24.37
61703;BMP280;47622;47.726;3.298;2023-05-13T08:50:48;99346.25;;;22.36
61703;BMP280;47622;47.726;3.298;2023-05-13T08:53:15;99344.59;;;21.96
61703;BMP280;47622;47.726;3.298;2023-05-13T08:55:42;99349.72;;;22.47
61703;BMP280;47622;47.726;3.298;2023-05-13T08:58:08;99346.69;;;23.30
61703;BMP280;47622;47.726;3.298;2023-05-13T09:00:34;99354.91;;;24.69
61703;BMP280;47622;47.726;3.298;2023-05-13T09:03:00;99343.25;;;24.38
61703;BMP280;47622;47.726;3.298;2023-05-13T09:05:25;99342.16;;;23.17
61703;BMP280;47622;47.726;3.298;2023-05-13T09:07:52;99338.41;;;20.79
61703;BMP280;47622;47.726;3.298;2023-05-13T09:10:20;99334.50;;;20.32
61703;BMP280;47622;47.726;3.298;2023-05-13T09:12:51;99336.44;;;21.16
61703;BMP280;47622;47.726;3.298;2023-05-13T09:15:18;99342.03;;;22.28
61703;BMP280;47622;47.726;3.298;2023-05-13T09:17:47;99341.97;;;23.91
61703;BMP280;47622;47.726;3.298;2023-05-13T09:20:16;99342.84;;;21.52
61703;BMP280;47622;47.726;3.298;2023-05-13T09:23:10;99335.94;;;20.59
61703;BMP280;47622;47.726;3.298;2023-05-13T09:25:39;99329.88;;;21.58
61703;BMP280;47622;47.726;3.298;2023-05-13T09:28:06;99333.75;;;20.32
61703;BMP280;47622;47.726;3.298;2023-05-13T09:30:37;99331.66;;;20.51
61703;BMP280;47622;47.726;3.298;2023-05-13T09:33:08;99327.91;;;19.66
61703;BMP280;47622;47.726;3.298;2023-05-13T09:35:48;99325.78;;;19.75
61703;BMP280;47622;47.726;3.298;2023-05-13T09:38:18;99326.13;;;20.71
61703;BMP280;47622;47.726;3.298;2023-05-13T09:40:51;99323.00;;;21.57
61703;BMP280;47622;47.726;3.298;2023-05-13T09:43:25;99336.69;;;20.56
61703;BMP280;47622;47.726;3.298;2023-05-13T09:45:56;99322.06;;;20.43
61703;BMP280;47622;47.726;3.298;2023-05-13T09:48:27;99322.66;;;20.67
61703;BMP280;47622;47.726;3.298;2023-05-13T09:50:53;99324.75;;;20.84
61703;BMP280;47622;47.726;3.298;2023-05-13T09:53:20;99325.47;;;21.90
61703;BMP280;47622;47.726;3.298;2023-05-13T09:55:47;99315.47;;;21.73
61703;BMP280;47622;47.726;3.298;2023-05-13T09:58:13;99314.56;;;22.31
61703;BMP280;47622;47.726;3.298;2023-05-13T10:00:39;99319.84;;;22.17
61703;BMP280;47622;47.726;3.298;2023-05-13T10:03:06;99311.00;;;21.91
61703;BMP280;47622;47.726;3.298;2023-05-13T10:05:32;99315.56;;;20.81
61703;BMP280;47622;47.726;3.298;2023-05-13T10:07:59;99317.94;;;21.38
61703;BMP280;47622;47.726;3.298;2023-05-13T10:10:30;99314.63;;;21.62
61703;BMP280;47622;47.726;3.298;2023-05-13T10:13:04;99310.72;;;21.45
61703;BMP280;47622;47.726;3.298;2023-05-13T10:15:35;99324.81;;;22.08
61703;BMP280;47622;47.726;3.298;2023-05-13T10:18:01;99319.16;;;22.62
61703;BMP280;47622;47.726;3.298;2023-05-13T10:20:28;99327.19;;;23.40
61703;BMP280;47622;47.726;3.298;2023-05-13T10:22:54;99318.38;;;22.30
61703;BMP280;47622;47.726;3.298;2023-05-13T10:25:21;99318.59;;;21.89
61703;BMP280;47622;47.726;3.298;2023-05-13T10:27:47;99322.63;;;23.27
61703;BMP280;47622;47.726;3.298;2023-05-13T10:30:14;99326.75;;;23.70
61703;BMP280;47622;47.726;3.298;2023-05-13T10:32:40;99322.94;;;23.54
61703;BMP280;47622;47.726;3.298;2023-05-13T10:40:38;99316.53;;;22.69
61703;BMP280;47622;47.726;3.298;2023-05-13T10:45:32;99308.13;;;22.85
61703;BMP280;47622;47.726;3.298;2023-05-13T10:48:05;99314.91;;;23.46
61703;BMP280;47622;47.726;3.298;2023-05-13T10:50:31;99312.59;;;23.63
61703;BMP280;47622;47.726;3.298;2023-05-13T10:52:57;99315.41;;;24.18
61703;BMP280;47622;47.726;3.298;2023-05-13T10:55:26;99306.53;;;23.30
61703;BMP280;47622;47.726;3.298;2023-05-13T11:00:34;99289.75;;;22.94
61703;BMP280;47622;47.726;3.298;2023-05-13T11:05:46;99303.66;;;24.53
61703;BMP280;47622;47.726;3.298;2023-05-13T11:08:51;99313.56;;;24.63
61703;BMP280;47622;47.726;3.298;2023-05-13T11:16:23;99310.38;;;23.15
61703;BMP280;47622;47.726;3.298;2023-05-13T11:18:50;99311.50;;;23.32
61703;BMP280;47622;47.726;3.298;2023-05-13T11:21:16;99305.78;;;22.45
61703;BMP280;47622;47.726;3.298;2023-05-13T11:23:56;99297.34;;;22.25
61703;BMP280;47622;47.726;3.298;2023-05-13T11:26:22;99297.81;;;22.84
61703;BMP280;47622;47.726;3.298;2023-05-13T11:29:05;99302.00;;;22.99
61703;BMP280;47622;47.726;3.298;2023-05-13T11:31:46;99288.09;;;23.64
61703;BMP280;47622;47.726;3.298;2023-05-13T11:34:16;99293.25;;;24.00
61703;BMP280;47622;47.726;3.298;2023-05-13T11:36:45;99281.38;;;24.63
61703;BMP280;47622;47.726;3.298;2023-05-13T11:41:43;99291.13;;;24.87
61703;BMP280;47622;47.726;3.298;2023-05-13T11:44:11;99286.41;;;24.02
61703;BMP280;47622;47.726;3.298;2023-05-13T11:46:37;99279.28;;;23.64
61703;BMP280;47622;47.726;3.298;2023-05-13T11:49:04;99269.50;;;24.09
61703;BMP280;47622;47.726;3.298;2023-05-13T11:51:29;99273.56;;;23.62
61703;BMP280;47622;47.726;3.298;2023-05-13T11:54:00;99266.09;;;22.82
61703;BMP280;47622;47.726;3.298;2023-05-13T11:56:26;99267.84;;;21.86
61703;BMP280;47622;47.726;3.298;2023-05-13T11:58:53;99273.94;;;21.86
61703;BMP280;47622;47.726;3.298;2023-05-13T12:01:19;99274.47;;;22.31
61703;BMP280;47622;47.726;3.298;2023-05-13T12:03:45;99254.69;;;20.87
61703;BMP280;47622;47.726;3.298;2023-05-13T12:06:12;99277.88;;;20.42
61703;BMP280;47622;47.726;3.298;2023-05-13T12:08:44;99272.44;;;19.68
61703;BMP280;47622;47.726;3.298;2023-05-13T12:11:11;99275.56;;;20.04
61703;BMP280;47622;47.726;3.298;2023-05-13T12:13:40;99279.34;;;19.73
61703;BMP280;47622;47.726;3.298;2023-05-13T12:16:06;99286.44;;;19.62
61703;BMP280;47622;47.726;3.298;2023-05-13T12:18:34;99286.44;;;19.35
61703;BMP280;47622;47.726;3.298;2023-05-13T12:21:13;99293.66;;;19.35
61703;BMP280;47622;47.726;3.298;2023-05-13T12:23:38;99291.47;;;18.72
61703;BMP280;47622;47.726;3.298;2023-05-13T12:26:06;99281.28;;;17.97
61703;BMP280;47622;47.726;3.298;2023-05-13T12:28:32;99280.34;;;17.73
61703;BMP280;47622;47.726;3.298;2023-05-13T12:30:59;99273.75;;;17.83
61703;BMP280;47622;47.726;3.298;2023-05-13T12:33:27;99277.25;;;17.52
61703;BMP280;47622;47.726;3.298;2023-05-13T12:36:39;99272.94;;;17.63
61703;BMP280;47622;47.726;3.298;2023-05-13T12:38:53;99281.16;;;17.58
61703;BMP280;47622;47.726;3.298;2023-05-13T12:41:20;99271.28;;;17.74
61703;BMP280;47622;47.726;3.298;2023-05-13T12:43:46;99269.50;;;17.98
61703;BMP280;47622;47.726;3.298;2023-05-13T12:46:11;99271.84;;;18.18
61703;BMP280;47622;47.726;3.298;2023-05-13T12:48:38;99277.22;;;18.41
61703;BMP280;47622;47.726;3.298;2023-05-13T12:51:05;99277.72;;;18.70
61703;BMP280;47622;47.726;3.298;2023-05-13T12:53:30;99277.50;;;19.01
61703;BMP280;47622;47.726;3.298;2023-05-13T12:55:56;99270.19;;;19.44
61703;BMP280;47622;47.726;3.298;2023-05-13T12:58:21;99274.06;;;19.76
61703;BMP280;47622;47.726;3.298;2023-05-13T13:00:47;99260.13;;;19.86
61703;BMP280;47622;47.726;3.298;2023-05-13T13:03:12;99267.66;;;19.81
61703;BMP280;47622;47.726;3.298;2023-05-13T13:05:38;99268.66;;;19.69
61703;BMP280;47622;47.726;3.298;2023-05-13T13:08:04;99258.81;;;19.73
61703;BMP280;47622;47.726;3.298;2023-05-13T13:10:29;99258.78;;;19.70
61703;BMP280;47622;47.726;3.298;2023-05-13T13:12:55;99254.56;;;19.99
61703;BMP280;47622;47.726;3.298;2023-05-13T13:15:21;99257.47;;;19.86
61703;BMP280;47622;47.726;3.298;2023-05-13T13:17:46;99254.16;;;19.97
61703;BMP280;47622;47.726;3.298;2023-05-13T13:20:13;99247.25;;;19.88
61703;BMP280;47622;47.726;3.298;2023-05-13T13:22:39;99249.13;;;19.88
61703;BMP280;47622;47.726;3.298;2023-05-13T13:25:05;99240.94;;;20.04
61703;BMP280;47622;47.726;3.298;2023-05-13T13:27:32;99236.91;;;20.17
61703;BMP280;47622;47.726;3.298;2023-05-13T13:29:57;99241.59;;;19.93
61703;BMP280;47622;47.726;3.298;2023-05-13T13:32:23;99235.06;;;20.24
61703;BMP280;47622;47.726;3.298;2023-05-13T13:34:49;99240.78;;;20.63
61703;BMP280;47622;47.726;3.298;2023-05-13T13:37:14;99227.38;;;21.04
61703;BMP280;47622;47.726;3.298;2023-05-13T13:39:40;99223.66;;;21.16
61703;BMP280;47622;47.726;3.298;2023-05-13T13:42:05;99212.63;;;21.24
61703;BMP280;47622;47.726;3.298;2023-05-13T13:44:31;99216.28;;;21.67
61703;BMP280;47622;47.726;3.298;2023-05-13T13:46:57;99209.50;;;21.84
61703;BMP280;47622;47.726;3.298;2023-05-13T13:49:23;99217.56;;;22.20
61703;BMP280;47622;47.726;3.298;2023-05-13T13:51:50;99205.72;;;22.07
61703;BMP280;47622;47.726;3.298;2023-05-13T13:54:16;99209.94;;;22.22
61703;BMP280;47622;47.726;3.298;2023-05-13T13:56:42;99204.22;;;22.27
61703;BMP280;47622;47.726;3.298;2023-05-13T13:59:07;99216.75;;;21.91
61703;BMP280;47622;47.726;3.298;2023-05-13T14:01:34;99207.16;;;21.72
61703;BMP280;47622;47.726;3.298;2023-05-13T14:04:14;99206.13;;;21.18
61703;BMP280;47622;47.726;3.298;2023-05-13T14:06:40;99202.44;;;20.79
61703;BMP280;47622;47.726;3.298;2023-05-13T14:09:07;99197.19;;;20.89
61703;BMP280;47622;47.726;3.298;2023-05-13T14:11:33;99199.78;;;20.79
61703;BMP280;47622;47.726;3.298;2023-05-13T14:13:58;99200.50;;;20.28
61703;BMP280;47622;47.726;3.298;2023-05-13T14:16:24;99197.19;;;20.42
61703;BMP280;47622;47.726;3.298;2023-05-13T14:18:50;99193.78;;;20.96
61703;BMP280;47622;47.726;3.298;2023-05-13T14:21:16;99184.66;;;20.97
61703;BMP280;47622;47.726;3.298;2023-05-13T14:23:41;99182.59;;;21.34
61703;BMP280;47622;47.726;3.298;2023-05-13T14:26:08;99187.00;;;21.06
61703;BMP280;47622;47.726;3.298;2023-05-13T14:28:35;99178.97;;;21.02
61703;BMP280;47622;47.726;3.298;2023-05-13T14:31:01;99175.56;;;20.50